This is the latest recevied weather packets stored in our database for station/object KM4FZA. If no packets are shown the sender has not sent any weather packets the latest 10 day(s).
| Time | Temp. | Humidity | Pressure | Rain* | Wind** | Luminosity | Snow |
|---|---|---|---|---|---|---|---|
| 1777210526 | 17.78° C | 97% | 1016.2 hPa | 0 mm | - | - | - |
| 1777209931 | 17.78° C | 98% | 1016.2 hPa | 0 mm | - | - | - |
| 1777209360 | 17.22° C | 99% | 1016.2 hPa | 0 mm | - | - | - |
| 1777208724 | 17.22° C | 99% | 1016.2 hPa | 0 mm | - | - | - |
| 1777205716 | 16.67° C | 99% | 1015.8 hPa | 0 mm | - | - | - |
| 1777202131 | 15.56° C | 99% | 1014.9 hPa | 0 mm | - | - | - |
| 1777193144 | 15.56° C | 99% | 1013.8 hPa | 0 mm | - | - | - |
| 1777184716 | 15.56° C | 99% | 1013.4 hPa | 0 mm | - | - | - |
| 1777182927 | 16.11° C | 99% | 1013.3 hPa | 0 mm | - | - | - |
| 1777179324 | 16.11° C | 99% | 1013.4 hPa | 0 mm | - | - | - |
| 1777176928 | 16.11° C | 99% | 1013.3 hPa | 0 mm | - | - | - |
| 1777173325 | 16.67° C | 99% | 1014 hPa | 0.25 mm | - | - | - |
| 1777172118 | 16.11° C | 99% | 1014 hPa | 0 mm | - | - | - |
| 1777171523 | 16.11° C | 99% | 1014 hPa | 0.25 mm | - | - | - |
| 1777169742 | 16.67° C | 99% | 1014.1 hPa | 0.25 mm | - | - | - |
| 1777167326 | 16.67° C | 99% | 1013.9 hPa | 0.25 mm | - | - | - |
| 1777158931 | 17.22° C | 95% | 1013.1 hPa | 2.29 mm | - | - | - |
| 1777158318 | 17.22° C | 95% | 1013.3 hPa | 2.54 mm | - | - | - |
| 1777153526 | 18.89° C | 85% | 1012.4 hPa | 2.03 mm | - | - | - |
| 1777152319 | 24.44° C | 53% | 1010.7 hPa | 0 mm | - | - | - |
| 1777151131 | 25° C | 57% | 1010.5 hPa | 0 mm | - | - | - |
| 1777150518 | 25.56° C | 56% | 1010.4 hPa | 0 mm | - | - | - |
| 1777149329 | 26.11° C | 52% | 1010.4 hPa | 0 mm | - | - | - |
| 1777148716 | 26.67° C | 49% | 1010.5 hPa | 0 mm | - | - | - |
| 1777141529 | 30° C | 35% | 1011.4 hPa | 0 mm | - | - | - |
* Rain latest hour (hover to see other rain measurements)
** Current wind speed in m/s (hover to see current wind gust speed)